sensor_id;sensor_type;location;lat;lon;timestamp;pressure;altitude;pressure_sealevel;temperature;humidity
10718;BME280;13513;42.700;23.124;2023-07-13T00:00:52;93263.05;;;23.73;50.42
10718;BME280;13513;42.700;23.124;2023-07-13T00:03:19;93258.52;;;23.79;49.17
10718;BME280;13513;42.700;23.124;2023-07-13T00:05:47;93254.16;;;23.72;50.78
10718;BME280;13513;42.700;23.124;2023-07-13T00:08:16;93250.91;;;23.73;49.84
10718;BME280;13513;42.700;23.124;2023-07-13T00:10:44;93255.95;;;23.74;49.73
10718;BME280;13513;42.700;23.124;2023-07-13T00:13:11;93247.17;;;23.71;50.36
10718;BME280;13513;42.700;23.124;2023-07-13T00:15:39;93246.20;;;23.76;50.36
10718;BME280;13513;42.700;23.124;2023-07-13T00:18:06;93252.86;;;23.78;49.39
10718;BME280;13513;42.700;23.124;2023-07-13T00:20:34;93249.53;;;23.81;49.41
10718;BME280;13513;42.700;23.124;2023-07-13T00:23:01;93247.95;;;23.80;49.88
10718;BME280;13513;42.700;23.124;2023-07-13T00:25:29;93243.81;;;23.83;50.09
10718;BME280;13513;42.700;23.124;2023-07-13T00:27:57;93238.73;;;23.90;48.88
10718;BME280;13513;42.700;23.124;2023-07-13T00:30:24;93243.98;;;23.95;49.10
10718;BME280;13513;42.700;23.124;2023-07-13T00:32:52;93233.98;;;23.95;48.78
10718;BME280;13513;42.700;23.124;2023-07-13T00:35:19;93235.02;;;23.97;48.41
10718;BME280;13513;42.700;23.124;2023-07-13T00:37:47;93233.27;;;24.01;50.19
10718;BME280;13513;42.700;23.124;2023-07-13T00:40:15;93229.31;;;23.98;49.68
10718;BME280;13513;42.700;23.124;2023-07-13T00:42:43;93230.17;;;23.96;50.62
10718;BME280;13513;42.700;23.124;2023-07-13T00:47:46;93227.55;;;24.02;49.24
10718;BME280;13513;42.700;23.124;2023-07-13T00:50:15;93233.98;;;24.04;48.45
10718;BME280;13513;42.700;23.124;2023-07-13T00:52:46;93227.36;;;24.16;47.86
10718;BME280;13513;42.700;23.124;2023-07-13T00:55:14;93225.13;;;24.09;48.28
10718;BME280;13513;42.700;23.124;2023-07-13T00:57:43;93227.05;;;24.09;48.33
10718;BME280;13513;42.700;23.124;2023-07-13T01:00:11;93223.78;;;24.09;48.34
10718;BME280;13513;42.700;23.124;2023-07-13T01:02:42;93219.67;;;24.12;48.32
10718;BME280;13513;42.700;23.124;2023-07-13T01:05:14;93224.66;;;24.16;48.26
10718;BME280;13513;42.700;23.124;2023-07-13T01:07:43;93225.06;;;24.12;48.22
10718;BME280;13513;42.700;23.124;2023-07-13T01:10:29;93224.35;;;24.09;48.29
10718;BME280;13513;42.700;23.124;2023-07-13T01:12:59;93224.58;;;24.10;49.42
10718;BME280;13513;42.700;23.124;2023-07-13T01:15:37;93223.91;;;23.98;50.54
10718;BME280;13513;42.700;23.124;2023-07-13T01:18:08;93223.48;;;23.85;50.23
10718;BME280;13513;42.700;23.124;2023-07-13T01:20:37;93224.83;;;23.85;50.15
10718;BME280;13513;42.700;23.124;2023-07-13T01:23:07;93223.11;;;23.81;50.91
10718;BME280;13513;42.700;23.124;2023-07-13T01:25:36;93220.41;;;23.81;50.78
10718;BME280;13513;42.700;23.124;2023-07-13T01:28:05;93218.52;;;23.64;52.22
10718;BME280;13513;42.700;23.124;2023-07-13T01:30:36;93210.42;;;23.56;54.02
10718;BME280;13513;42.700;23.124;2023-07-13T01:33:08;93210.36;;;23.50;55.03
10718;BME280;13513;42.700;23.124;2023-07-13T01:35:36;93207.09;;;23.25;54.99
10718;BME280;13513;42.700;23.124;2023-07-13T01:38:04;93201.48;;;23.04;57.79
10718;BME280;13513;42.700;23.124;2023-07-13T01:40:34;93199.73;;;22.91;57.89
10718;BME280;13513;42.700;23.124;2023-07-13T01:43:02;93200.02;;;22.81;58.66
10718;BME280;13513;42.700;23.124;2023-07-13T01:45:31;93198.48;;;22.69;58.07
10718;BME280;13513;42.700;23.124;2023-07-13T01:47:59;93191.18;;;22.61;60.70
10718;BME280;13513;42.700;23.124;2023-07-13T01:50:26;93194.68;;;22.61;60.66
10718;BME280;13513;42.700;23.124;2023-07-13T01:52:54;93195.53;;;22.59;60.82
10718;BME280;13513;42.700;23.124;2023-07-13T01:55:22;93196.80;;;22.62;60.83
10718;BME280;13513;42.700;23.124;2023-07-13T01:57:50;93196.95;;;22.57;61.07
10718;BME280;13513;42.700;23.124;2023-07-13T02:00:18;93193.41;;;22.59;61.55
10718;BME280;13513;42.700;23.124;2023-07-13T02:02:51;93197.95;;;22.50;61.47
10718;BME280;13513;42.700;23.124;2023-07-13T02:05:17;93203.23;;;22.44;62.33
10718;BME280;13513;42.700;23.124;2023-07-13T02:07:46;93197.84;;;22.44;62.10
10718;BME280;13513;42.700;23.124;2023-07-13T02:10:17;93197.42;;;22.39;63.19
10718;BME280;13513;42.700;23.124;2023-07-13T02:12:48;93198.84;;;22.37;62.77
10718;BME280;13513;42.700;23.124;2023-07-13T02:15:17;93199.73;;;22.43;62.67
10718;BME280;13513;42.700;23.124;2023-07-13T02:17:46;93198.49;;;22.30;65.07
10718;BME280;13513;42.700;23.124;2023-07-13T02:20:13;93196.44;;;22.16;66.55
10718;BME280;13513;42.700;23.124;2023-07-13T02:22:41;93197.11;;;22.02;64.51
10718;BME280;13513;42.700;23.124;2023-07-13T02:25:08;93197.79;;;21.96;66.74
10718;BME280;13513;42.700;23.124;2023-07-13T02:27:36;93199.67;;;21.96;66.57
10718;BME280;13513;42.700;23.124;2023-07-13T02:30:03;93199.82;;;22.10;64.66
10718;BME280;13513;42.700;23.124;2023-07-13T02:32:31;93200.10;;;22.00;66.87
10718;BME280;13513;42.700;23.124;2023-07-13T02:35:00;93207.88;;;21.69;69.29
10718;BME280;13513;42.700;23.124;2023-07-13T02:37:27;93213.75;;;21.49;70.05
10718;BME280;13513;42.700;23.124;2023-07-13T02:39:54;93216.59;;;21.08;72.44
10718;BME280;13513;42.700;23.124;2023-07-13T02:42:22;93218.29;;;20.91;73.98
10718;BME280;13513;42.700;23.124;2023-07-13T02:44:49;93215.57;;;20.93;74.97
10718;BME280;13513;42.700;23.124;2023-07-13T02:47:17;93224.49;;;20.78;76.04
10718;BME280;13513;42.700;23.124;2023-07-13T02:49:44;93223.87;;;20.81;76.41
10718;BME280;13513;42.700;23.124;2023-07-13T02:52:12;93224.50;;;20.89;77.81
10718;BME280;13513;42.700;23.124;2023-07-13T02:54:39;93227.75;;;21.02;77.54
10718;BME280;13513;42.700;23.124;2023-07-13T02:57:07;93231.34;;;20.97;79.06
10718;BME280;13513;42.700;23.124;2023-07-13T02:59:34;93232.20;;;20.95;79.96
10718;BME280;13513;42.700;23.124;2023-07-13T03:02:03;93226.97;;;21.12;78.86
10718;BME280;13513;42.700;23.124;2023-07-13T03:04:30;93228.58;;;21.24;78.16
10718;BME280;13513;42.700;23.124;2023-07-13T03:26:09;93162.35;;;21.28;78.75
10718;BME280;13513;42.700;23.124;2023-07-13T03:28:33;93227.94;;;21.52;77.44
10718;BME280;13513;42.700;23.124;2023-07-13T03:31:06;93229.95;;;21.57;77.34
10718;BME280;13513;42.700;23.124;2023-07-13T03:33:34;93233.37;;;21.49;78.09
10718;BME280;13513;42.700;23.124;2023-07-13T03:36:03;93241.32;;;21.54;77.26
10718;BME280;13513;42.700;23.124;2023-07-13T03:38:30;93242.84;;;21.58;77.42
10718;BME280;13513;42.700;23.124;2023-07-13T03:40:58;93241.08;;;21.42;79.19
10718;BME280;13513;42.700;23.124;2023-07-13T03:43:25;93234.76;;;21.47;79.33
10718;BME280;13513;42.700;23.124;2023-07-13T03:45:53;93236.17;;;21.22;80.16
10718;BME280;13513;42.700;23.124;2023-07-13T03:48:20;93233.84;;;21.18;81.89
10718;BME280;13513;42.700;23.124;2023-07-13T03:50:48;93238.75;;;21.38;80.40
10718;BME280;13513;42.700;23.124;2023-07-13T03:53:16;93242.78;;;21.38;81.70
10718;BME280;13513;42.700;23.124;2023-07-13T03:55:44;93237.14;;;21.48;81.01
10718;BME280;13513;42.700;23.124;2023-07-13T03:58:32;93242.77;;;21.60;80.16
10718;BME280;13513;42.700;23.124;2023-07-13T04:01:01;93236.89;;;21.83;78.66
10718;BME280;13513;42.700;23.124;2023-07-13T04:03:29;93234.92;;;22.27;74.12
10718;BME280;13513;42.700;23.124;2023-07-13T04:06:00;93234.13;;;22.46;74.31
10718;BME280;13513;42.700;23.124;2023-07-13T04:08:30;93232.52;;;22.76;74.16
10718;BME280;13513;42.700;23.124;2023-07-13T04:10:58;93234.45;;;23.01;72.20
10718;BME280;13513;42.700;23.124;2023-07-13T04:13:27;93230.23;;;23.17;73.18
10718;BME280;13513;42.700;23.124;2023-07-13T04:15:55;93235.41;;;23.42;70.55
10718;BME280;13513;42.700;23.124;2023-07-13T04:18:22;93236.59;;;23.55;70.62
10718;BME280;13513;42.700;23.124;2023-07-13T04:20:50;93240.17;;;23.79;69.87
10718;BME280;13513;42.700;23.124;2023-07-13T04:23:18;93250.41;;;23.62;71.85
10718;BME280;13513;42.700;23.124;2023-07-13T04:25:51;93243.20;;;23.60;70.17
10718;BME280;13513;42.700;23.124;2023-07-13T04:28:21;93244.70;;;23.64;70.46
10718;BME280;13513;42.700;23.124;2023-07-13T04:30:49;93242.31;;;24.05;68.58
10718;BME280;13513;42.700;23.124;2023-07-13T04:33:17;93245.12;;;24.25;68.93
10718;BME280;13513;42.700;23.124;2023-07-13T04:35:46;93245.89;;;24.57;69.34
10718;BME280;13513;42.700;23.124;2023-07-13T04:38:14;93249.21;;;24.86;69.19
10718;BME280;13513;42.700;23.124;2023-07-13T04:40:46;93248.18;;;24.99;66.10
10718;BME280;13513;42.700;23.124;2023-07-13T04:43:13;93263.95;;;24.97;67.08
10718;BME280;13513;42.700;23.124;2023-07-13T04:45:41;93261.02;;;24.73;65.99
10718;BME280;13513;42.700;23.124;2023-07-13T04:48:08;93262.56;;;24.68;66.47
10718;BME280;13513;42.700;23.124;2023-07-13T04:50:37;93268.59;;;24.88;62.62
10718;BME280;13513;42.700;23.124;2023-07-13T04:53:05;93268.52;;;25.05;64.48
10718;BME280;13513;42.700;23.124;2023-07-13T04:55:32;93268.61;;;25.17;61.49
10718;BME280;13513;42.700;23.124;2023-07-13T04:58:00;93271.16;;;25.57;60.31
10718;BME280;13513;42.700;23.124;2023-07-13T05:00:29;93268.88;;;25.94;59.99
10718;BME280;13513;42.700;23.124;2023-07-13T05:02:58;93262.16;;;26.71;57.58
10718;BME280;13513;42.700;23.124;2023-07-13T05:05:26;93260.48;;;27.57;56.33
10718;BME280;13513;42.700;23.124;2023-07-13T05:07:54;93265.72;;;28.50;51.42
10718;BME280;13513;42.700;23.124;2023-07-13T05:10:22;93265.83;;;29.22;48.58
10718;BME280;13513;42.700;23.124;2023-07-13T05:12:50;93264.56;;;30.20;46.82
10718;BME280;13513;42.700;23.124;2023-07-13T05:15:18;93270.81;;;30.90;44.82
10718;BME280;13513;42.700;23.124;2023-07-13T05:17:49;93269.31;;;31.51;42.89
10718;BME280;13513;42.700;23.124;2023-07-13T05:20:17;93272.28;;;31.91;42.29
10718;BME280;13513;42.700;23.124;2023-07-13T05:22:46;93273.22;;;32.18;41.89
10718;BME280;13513;42.700;23.124;2023-07-13T05:25:13;93275.98;;;32.48;40.92
10718;BME280;13513;42.700;23.124;2023-07-13T05:27:41;93278.83;;;32.75;40.62
10718;BME280;13513;42.700;23.124;2023-07-13T05:30:11;93272.42;;;32.97;40.34
10718;BME280;13513;42.700;23.124;2023-07-13T05:32:38;93280.63;;;33.17;40.19
10718;BME280;13513;42.700;23.124;2023-07-13T05:35:06;93275.75;;;33.37;39.77
10718;BME280;13513;42.700;23.124;2023-07-13T05:37:34;93273.27;;;33.45;38.87
10718;BME280;13513;42.700;23.124;2023-07-13T05:40:02;93275.14;;;33.57;38.59
10718;BME280;13513;42.700;23.124;2023-07-13T05:42:30;93275.09;;;33.54;37.92
10718;BME280;13513;42.700;23.124;2023-07-13T05:44:57;93285.34;;;33.37;38.27
10718;BME280;13513;42.700;23.124;2023-07-13T05:47:25;93286.73;;;33.64;38.16
10718;BME280;13513;42.700;23.124;2023-07-13T05:49:52;93281.70;;;34.00;38.87
10718;BME280;13513;42.700;23.124;2023-07-13T05:52:20;93279.66;;;34.17;38.24
10718;BME280;13513;42.700;23.124;2023-07-13T05:54:47;93275.70;;;33.13;39.80
10718;BME280;13513;42.700;23.124;2023-07-13T05:57:14;93265.25;;;33.25;41.89
10718;BME280;13513;42.700;23.124;2023-07-13T05:59:42;93267.81;;;32.84;42.32
10718;BME280;13513;42.700;23.124;2023-07-13T06:02:10;93273.52;;;32.89;42.60
10718;BME280;13513;42.700;23.124;2023-07-13T06:04:37;93275.66;;;33.06;39.90
10718;BME280;13513;42.700;23.124;2023-07-13T06:07:05;93282.03;;;33.37;40.87
10718;BME280;13513;42.700;23.124;2023-07-13T06:09:32;93283.43;;;33.68;38.71
10718;BME280;13513;42.700;23.124;2023-07-13T06:12:00;93280.56;;;34.01;39.17
10718;BME280;13513;42.700;23.124;2023-07-13T06:14:27;93285.54;;;34.19;38.82
10718;BME280;13513;42.700;23.124;2023-07-13T06:16:54;93281.50;;;34.29;38.15
10718;BME280;13513;42.700;23.124;2023-07-13T06:19:22;93284.09;;;34.32;38.85
10718;BME280;13513;42.700;23.124;2023-07-13T06:21:49;93292.20;;;34.48;36.91
10718;BME280;13513;42.700;23.124;2023-07-13T06:24:17;93295.21;;;34.70;37.19
10718;BME280;13513;42.700;23.124;2023-07-13T06:26:44;93293.15;;;34.91;36.81
10718;BME280;13513;42.700;23.124;2023-07-13T06:29:12;93292.79;;;34.99;37.88
10718;BME280;13513;42.700;23.124;2023-07-13T06:31:39;93288.89;;;35.14;37.16
10718;BME280;13513;42.700;23.124;2023-07-13T06:34:07;93279.71;;;35.58;36.65
10718;BME280;13513;42.700;23.124;2023-07-13T06:36:34;93284.01;;;36.08;36.30
10718;BME280;13513;42.700;23.124;2023-07-13T06:39:03;93281.98;;;36.44;35.35
10718;BME280;13513;42.700;23.124;2023-07-13T06:41:30;93278.09;;;36.27;36.21
10718;BME280;13513;42.700;23.124;2023-07-13T06:43:59;93281.34;;;36.52;35.96
10718;BME280;13513;42.700;23.124;2023-07-13T06:46:28;93273.06;;;36.59;35.50
10718;BME280;13513;42.700;23.124;2023-07-13T06:48:56;93282.41;;;36.86;34.86
10718;BME280;13513;42.700;23.124;2023-07-13T06:51:23;93280.90;;;37.10;34.05
10718;BME280;13513;42.700;23.124;2023-07-13T06:53:52;93283.93;;;37.33;33.59
10718;BME280;13513;42.700;23.124;2023-07-13T06:56:20;93285.52;;;37.60;32.71
10718;BME280;13513;42.700;23.124;2023-07-13T06:58:48;93279.04;;;36.43;36.67
10718;BME280;13513;42.700;23.124;2023-07-13T07:01:15;93281.08;;;36.00;36.48
10718;BME280;13513;42.700;23.124;2023-07-13T07:03:42;93286.38;;;35.54;37.68
10718;BME280;13513;42.700;23.124;2023-07-13T07:06:16;93287.09;;;35.02;38.86
10718;BME280;13513;42.700;23.124;2023-07-13T07:08:43;93285.14;;;35.06;38.10
10718;BME280;13513;42.700;23.124;2023-07-13T07:11:18;93294.59;;;35.26;35.42
10718;BME280;13513;42.700;23.124;2023-07-13T07:13:45;93290.52;;;35.50;35.71
10718;BME280;13513;42.700;23.124;2023-07-13T07:16:12;93289.05;;;35.01;36.78
10718;BME280;13513;42.700;23.124;2023-07-13T07:18:40;93293.06;;;35.46;35.53
10718;BME280;13513;42.700;23.124;2023-07-13T07:21:07;93291.33;;;35.86;34.62
10718;BME280;13513;42.700;23.124;2023-07-13T07:23:35;93288.92;;;36.26;35.21
10718;BME280;13513;42.700;23.124;2023-07-13T07:26:03;93292.50;;;35.81;30.65
10718;BME280;13513;42.700;23.124;2023-07-13T07:28:30;93285.81;;;35.61;31.93
10718;BME280;13513;42.700;23.124;2023-07-13T07:30:58;93289.55;;;35.45;30.97
10718;BME280;13513;42.700;23.124;2023-07-13T07:33:26;93290.53;;;35.64;32.79
10718;BME280;13513;42.700;23.124;2023-07-13T07:35:53;93282.50;;;35.79;33.25
10718;BME280;13513;42.700;23.124;2023-07-13T07:38:21;93274.02;;;35.92;31.51
10718;BME280;13513;42.700;23.124;2023-07-13T07:40:48;93272.80;;;36.04;31.74
10718;BME280;13513;42.700;23.124;2023-07-13T07:43:15;93272.66;;;36.60;31.85
10718;BME280;13513;42.700;23.124;2023-07-13T07:45:45;93275.09;;;36.91;30.81
10718;BME280;13513;42.700;23.124;2023-07-13T07:48:12;93274.54;;;37.24;30.01
10718;BME280;13513;42.700;23.124;2023-07-13T07:50:40;93278.81;;;37.57;29.92
10718;BME280;13513;42.700;23.124;2023-07-13T07:53:08;93271.62;;;37.74;30.51
10718;BME280;13513;42.700;23.124;2023-07-13T07:55:37;93268.95;;;38.07;29.92
10718;BME280;13513;42.700;23.124;2023-07-13T07:58:05;93271.78;;;37.78;28.79
10718;BME280;13513;42.700;23.124;2023-07-13T08:00:33;93273.16;;;37.49;28.00
10718;BME280;13513;42.700;23.124;2023-07-13T08:03:02;93265.66;;;36.38;29.78
10718;BME280;13513;42.700;23.124;2023-07-13T08:05:29;93256.66;;;36.81;31.38
10718;BME280;13513;42.700;23.124;2023-07-13T08:07:57;93256.53;;;37.34;30.78
10718;BME280;13513;42.700;23.124;2023-07-13T08:10:24;93254.67;;;37.72;30.04
10718;BME280;13513;42.700;23.124;2023-07-13T08:12:52;93252.17;;;38.43;29.38
10718;BME280;13513;42.700;23.124;2023-07-13T08:15:20;93244.44;;;38.80;29.07
10718;BME280;13513;42.700;23.124;2023-07-13T08:17:48;93241.66;;;39.13;27.40
10718;BME280;13513;42.700;23.124;2023-07-13T08:20:16;93246.92;;;39.31;25.99
10718;BME280;13513;42.700;23.124;2023-07-13T08:22:44;93244.78;;;39.00;25.26
10718;BME280;13513;42.700;23.124;2023-07-13T08:25:11;93247.59;;;38.67;26.71
10718;BME280;13513;42.700;23.124;2023-07-13T08:27:39;93252.33;;;38.81;26.24
10718;BME280;13513;42.700;23.124;2023-07-13T08:30:06;93246.47;;;38.76;27.01
10718;BME280;13513;42.700;23.124;2023-07-13T08:32:35;93248.20;;;37.70;25.30
10718;BME280;13513;42.700;23.124;2023-07-13T08:35:05;93239.41;;;38.01;27.53
10718;BME280;13513;42.700;23.124;2023-07-13T08:37:32;93235.68;;;37.81;27.98
10718;BME280;13513;42.700;23.124;2023-07-13T08:40:00;93233.44;;;37.87;25.94
10718;BME280;13513;42.700;23.124;2023-07-13T08:42:51;93227.82;;;37.76;27.93
10718;BME280;13513;42.700;23.124;2023-07-13T08:45:24;93235.23;;;37.86;25.61
10718;BME280;13513;42.700;23.124;2023-07-13T08:48:03;93238.27;;;37.76;26.15
10718;BME280;13513;42.700;23.124;2023-07-13T08:50:39;93242.41;;;38.20;29.23
10718;BME280;13513;42.700;23.124;2023-07-13T08:53:05;93242.66;;;38.51;27.71
10718;BME280;13513;42.700;23.124;2023-07-13T08:55:36;93243.88;;;38.95;26.62
10718;BME280;13513;42.700;23.124;2023-07-13T08:58:16;93247.50;;;38.89;25.28
10718;BME280;13513;42.700;23.124;2023-07-13T09:03:46;93259.89;;;39.37;26.13
10718;BME280;13513;42.700;23.124;2023-07-13T09:06:12;93269.03;;;40.61;26.83
10718;BME280;13513;42.700;23.124;2023-07-13T09:16:41;93274.09;;;42.00;24.38
10718;BME280;13513;42.700;23.124;2023-07-13T09:19:11;93275.48;;;42.00;23.99
10718;BME280;13513;42.700;23.124;2023-07-13T09:21:41;93277.25;;;41.51;23.45
10718;BME280;13513;42.700;23.124;2023-07-13T09:24:39;93282.74;;;40.80;22.19
10718;BME280;13513;42.700;23.124;2023-07-13T09:27:19;93280.90;;;40.31;24.86
10718;BME280;13513;42.700;23.124;2023-07-13T09:29:54;93280.16;;;39.69;23.51
10718;BME280;13513;42.700;23.124;2023-07-13T09:32:21;93281.09;;;39.32;25.93
10718;BME280;13513;42.700;23.124;2023-07-13T09:34:52;93283.36;;;38.62;26.84
10718;BME280;13513;42.700;23.124;2023-07-13T09:37:23;93279.06;;;38.39;29.03
10718;BME280;13513;42.700;23.124;2023-07-13T09:39:51;93277.04;;;38.28;26.68
10718;BME280;13513;42.700;23.124;2023-07-13T09:42:22;93278.67;;;38.22;27.92
10718;BME280;13513;42.700;23.124;2023-07-13T09:44:58;93269.23;;;38.20;29.20
10718;BME280;13513;42.700;23.124;2023-07-13T09:47:30;93270.67;;;38.13;27.33
10718;BME280;13513;42.700;23.124;2023-07-13T09:50:10;93259.73;;;37.99;26.83
10718;BME280;13513;42.700;23.124;2023-07-13T09:52:44;93249.78;;;37.90;29.65
10718;BME280;13513;42.700;23.124;2023-07-13T09:55:27;93245.40;;;37.74;31.72
10718;BME280;13513;42.700;23.124;2023-07-13T09:57:55;93251.05;;;37.31;27.72
10718;BME280;13513;42.700;23.124;2023-07-13T10:00:25;93241.19;;;37.30;29.46
10718;BME280;13513;42.700;23.124;2023-07-13T10:03:04;93238.78;;;37.06;28.16
10718;BME280;13513;42.700;23.124;2023-07-13T10:05:37;93234.77;;;36.85;26.56
10718;BME280;13513;42.700;23.124;2023-07-13T10:08:05;93227.91;;;36.82;28.47
10718;BME280;13513;42.700;23.124;2023-07-13T10:10:34;93229.10;;;36.81;28.55
10718;BME280;13513;42.700;23.124;2023-07-13T10:13:02;93226.20;;;36.62;29.16
10718;BME280;13513;42.700;23.124;2023-07-13T10:15:32;93231.71;;;36.69;30.42
10718;BME280;13513;42.700;23.124;2023-07-13T10:17:59;93233.45;;;36.78;29.22
10718;BME280;13513;42.700;23.124;2023-07-13T10:20:27;93236.42;;;36.72;28.06
10718;BME280;13513;42.700;23.124;2023-07-13T10:23:04;93232.30;;;36.65;30.44
10718;BME280;13513;42.700;23.124;2023-07-13T10:25:35;93232.20;;;36.47;29.66
10718;BME280;13513;42.700;23.124;2023-07-13T10:28:27;93226.18;;;36.29;28.23
10718;BME280;13513;42.700;23.124;2023-07-13T10:30:56;93231.14;;;36.02;27.65
10718;BME280;13513;42.700;23.124;2023-07-13T10:33:26;93226.00;;;36.14;30.33
10718;BME280;13513;42.700;23.124;2023-07-13T10:36:07;93218.11;;;36.30;30.33
10718;BME280;13513;42.700;23.124;2023-07-13T10:38:31;93217.84;;;36.43;30.05
10718;BME280;13513;42.700;23.124;2023-07-13T10:41:07;93215.64;;;36.54;31.20
10718;BME280;13513;42.700;23.124;2023-07-13T10:43:39;93214.60;;;36.66;29.55
10718;BME280;13513;42.700;23.124;2023-07-13T10:46:10;93213.19;;;36.73;30.60
10718;BME280;13513;42.700;23.124;2023-07-13T10:48:39;93212.17;;;36.79;26.98
10718;BME280;13513;42.700;23.124;2023-07-13T10:51:08;93201.11;;;36.86;29.20
10718;BME280;13513;42.700;23.124;2023-07-13T10:53:38;93195.45;;;36.78;30.16
10718;BME280;13513;42.700;23.124;2023-07-13T10:56:29;93198.18;;;36.81;28.73
10718;BME280;13513;42.700;23.124;2023-07-13T10:59:24;93192.30;;;36.76;28.99
10718;BME280;13513;42.700;23.124;2023-07-13T11:02:06;93186.13;;;36.90;30.01
10718;BME280;13513;42.700;23.124;2023-07-13T11:04:29;93183.16;;;36.89;31.97
10718;BME280;13513;42.700;23.124;2023-07-13T11:07:00;93186.63;;;36.68;27.45
10718;BME280;13513;42.700;23.124;2023-07-13T11:09:41;93178.57;;;36.69;29.21
10718;BME280;13513;42.700;23.124;2023-07-13T11:17:36;93165.59;;;36.66;27.61
10718;BME280;13513;42.700;23.124;2023-07-13T11:22:53;93168.96;;;36.15;28.40
10718;BME280;13513;42.700;23.124;2023-07-13T11:25:31;93158.00;;;36.04;31.33
10718;BME280;13513;42.700;23.124;2023-07-13T11:28:17;93155.78;;;36.18;30.10
10718;BME280;13513;42.700;23.124;2023-07-13T11:36:12;93152.98;;;36.68;30.74
10718;BME280;13513;42.700;23.124;2023-07-13T11:38:42;93155.55;;;36.67;31.30
10718;BME280;13513;42.700;23.124;2023-07-13T11:41:21;93162.84;;;36.66;29.95
10718;BME280;13513;42.700;23.124;2023-07-13T11:43:53;93157.33;;;36.66;28.66
10718;BME280;13513;42.700;23.124;2023-07-13T11:46:25;93158.91;;;36.70;28.48
10718;BME280;13513;42.700;23.124;2023-07-13T11:48:53;93150.64;;;36.70;29.87
10718;BME280;13513;42.700;23.124;2023-07-13T11:51:25;93143.90;;;36.78;29.26
10718;BME280;13513;42.700;23.124;2023-07-13T11:53:55;93138.70;;;36.87;30.30
10718;BME280;13513;42.700;23.124;2023-07-13T11:56:24;93133.11;;;36.72;29.16
10718;BME280;13513;42.700;23.124;2023-07-13T11:58:56;93137.09;;;36.93;30.53
10718;BME280;13513;42.700;23.124;2023-07-13T12:01:28;93132.61;;;37.10;31.62
10718;BME280;13513;42.700;23.124;2023-07-13T12:04:02;93140.11;;;37.09;28.42
10718;BME280;13513;42.700;23.124;2023-07-13T12:06:32;93131.63;;;37.12;28.37
10718;BME280;13513;42.700;23.124;2023-07-13T12:09:09;93137.98;;;37.05;27.47
10718;BME280;13513;42.700;23.124;2023-07-13T12:11:35;93127.91;;;36.85;28.88
10718;BME280;13513;42.700;23.124;2023-07-13T12:14:04;93122.74;;;36.90;29.01
10718;BME280;13513;42.700;23.124;2023-07-13T12:16:33;93119.02;;;36.85;28.13
10718;BME280;13513;42.700;23.124;2023-07-13T12:19:01;93108.70;;;36.96;30.19
10718;BME280;13513;42.700;23.124;2023-07-13T12:21:37;93108.65;;;37.03;29.26
10718;BME280;13513;42.700;23.124;2023-07-13T12:24:03;93107.77;;;36.91;27.78
10718;BME280;13513;42.700;23.124;2023-07-13T12:26:32;93108.12;;;36.97;27.16
10718;BME280;13513;42.700;23.124;2023-07-13T12:29:01;93106.56;;;36.96;28.40
10718;BME280;13513;42.700;23.124;2023-07-13T12:31:36;93105.09;;;37.03;29.48
10718;BME280;13513;42.700;23.124;2023-07-13T12:34:10;93093.00;;;36.93;29.50
10718;BME280;13513;42.700;23.124;2023-07-13T12:36:52;93096.56;;;36.90;29.58
10718;BME280;13513;42.700;23.124;2023-07-13T12:39:28;93089.45;;;36.93;28.07
10718;BME280;13513;42.700;23.124;2023-07-13T12:41:52;93088.83;;;36.97;29.00
10718;BME280;13513;42.700;23.124;2023-07-13T12:44:29;93090.20;;;36.97;29.99
10718;BME280;13513;42.700;23.124;2023-07-13T12:47:02;93081.38;;;37.12;29.24
10718;BME280;13513;42.700;23.124;2023-07-13T12:49:29;93073.42;;;37.25;30.09
10718;BME280;13513;42.700;23.124;2023-07-13T12:52:01;93076.00;;;37.24;30.28
10718;BME280;13513;42.700;23.124;2023-07-13T12:54:30;93075.95;;;37.27;29.84
10718;BME280;13513;42.700;23.124;2023-07-13T12:57:00;93076.50;;;37.34;29.08
10718;BME280;13513;42.700;23.124;2023-07-13T12:59:31;93073.13;;;37.34;29.70
10718;BME280;13513;42.700;23.124;2023-07-13T13:02:00;93066.35;;;37.24;29.09
10718;BME280;13513;42.700;23.124;2023-07-13T13:04:29;93064.56;;;37.25;29.50
10718;BME280;13513;42.700;23.124;2023-07-13T13:07:05;93060.09;;;37.20;28.96
10718;BME280;13513;42.700;23.124;2023-07-13T13:09:35;93058.44;;;37.26;29.86
10718;BME280;13513;42.700;23.124;2023-07-13T13:12:02;93067.00;;;36.94;27.92
10718;BME280;13513;42.700;23.124;2023-07-13T13:14:31;93061.44;;;36.98;30.43
10718;BME280;13513;42.700;23.124;2023-07-13T13:16:59;93065.11;;;37.06;28.81
10718;BME280;13513;42.700;23.124;2023-07-13T13:19:28;93060.79;;;36.83;26.80
10718;BME280;13513;42.700;23.124;2023-07-13T13:21:57;93058.11;;;36.95;29.62
10718;BME280;13513;42.700;23.124;2023-07-13T13:24:27;93050.66;;;37.14;29.79
10718;BME280;13513;42.700;23.124;2023-07-13T13:26:55;93045.81;;;37.06;28.23
10718;BME280;13513;42.700;23.124;2023-07-13T13:29:26;93047.53;;;36.93;28.58
10718;BME280;13513;42.700;23.124;2023-07-13T13:31:55;93038.80;;;36.98;29.37
10718;BME280;13513;42.700;23.124;2023-07-13T13:34:24;93054.55;;;36.98;27.60
10718;BME280;13513;42.700;23.124;2023-07-13T13:36:53;93039.33;;;37.05;28.88
10718;BME280;13513;42.700;23.124;2023-07-13T13:39:24;93036.34;;;37.07;29.63
10718;BME280;13513;42.700;23.124;2023-07-13T13:41:53;93038.00;;;37.01;29.48
10718;BME280;13513;42.700;23.124;2023-07-13T13:44:21;93041.68;;;36.84;27.96
10718;BME280;13513;42.700;23.124;2023-07-13T13:46:54;93037.94;;;36.86;29.29
10718;BME280;13513;42.700;23.124;2023-07-13T13:49:26;93036.17;;;36.84;27.71